createdAt,value
2023-09-30T00:00:12.725Z,59.24
2023-09-30T00:02:40.183Z,59.11
2023-09-30T00:05:07.693Z,59.47
2023-09-30T00:07:35.053Z,60.11
2023-09-30T00:10:02.363Z,61.14
2023-09-30T00:12:29.759Z,61.17
2023-09-30T00:14:56.725Z,59.81
2023-09-30T00:17:23.655Z,59.02
2023-09-30T00:19:50.630Z,59.08
2023-09-30T00:22:17.624Z,59.88
2023-09-30T00:24:44.631Z,60.61
2023-09-30T00:27:11.741Z,60.99
2023-09-30T00:29:39.273Z,62.01
2023-09-30T00:32:06.256Z,61.63
2023-09-30T00:34:35.098Z,59.86
2023-09-30T00:37:02.373Z,59.43
2023-09-30T00:39:32.297Z,59.36
2023-09-30T00:42:02.607Z,59.94
2023-09-30T00:44:29.784Z,60.23
2023-09-30T00:46:57.072Z,60.51
2023-09-30T00:49:24.904Z,61.44
2023-09-30T00:51:53.044Z,61.39
2023-09-30T00:54:20.456Z,60.00
2023-09-30T00:56:48.025Z,59.41
2023-09-30T00:59:15.718Z,59.86
2023-09-30T01:01:44.916Z,60.37
2023-09-30T01:04:12.711Z,60.27
2023-09-30T01:06:40.900Z,60.77
2023-09-30T01:09:10.726Z,61.73
2023-09-30T01:11:37.825Z,61.65
2023-09-30T01:14:04.947Z,60.27
2023-09-30T01:16:32.079Z,59.65
2023-09-30T01:18:59.255Z,59.51
2023-09-30T01:21:27.862Z,59.83
2023-09-30T01:23:54.921Z,60.48
2023-09-30T01:26:21.941Z,60.88
2023-09-30T01:28:50.035Z,61.46
2023-09-30T01:31:17.048Z,61.80
2023-09-30T01:33:44.033Z,60.58
2023-09-30T01:36:11.037Z,60.21
2023-09-30T01:38:37.992Z,60.29
2023-09-30T01:41:05.057Z,60.69
2023-09-30T01:43:33.263Z,60.85
2023-09-30T01:46:00.275Z,61.17
2023-09-30T01:48:27.340Z,61.79
2023-09-30T01:50:54.384Z,61.53
2023-09-30T01:53:21.430Z,60.01
2023-09-30T01:55:49.237Z,58.99
2023-09-30T01:58:16.288Z,59.03
2023-09-30T02:00:43.453Z,59.83
2023-09-30T02:03:10.595Z,60.75
2023-09-30T02:05:37.885Z,60.57
2023-09-30T02:08:07.123Z,60.97
2023-09-30T02:10:34.844Z,61.78
2023-09-30T02:13:02.212Z,60.29
2023-09-30T02:15:29.342Z,59.30
2023-09-30T02:17:56.338Z,59.28
2023-09-30T02:20:27.061Z,59.80
2023-09-30T02:22:55.539Z,59.80
2023-09-30T02:25:22.688Z,60.38
2023-09-30T02:27:51.643Z,61.33
2023-09-30T02:30:18.722Z,61.26
2023-09-30T02:32:47.414Z,60.01
2023-09-30T02:35:16.724Z,59.77
2023-09-30T02:37:44.281Z,60.25
2023-09-30T02:40:12.134Z,60.76
2023-09-30T02:42:40.240Z,61.23
2023-09-30T02:45:09.294Z,61.99
2023-09-30T02:47:36.660Z,62.19
2023-09-30T02:50:05.853Z,60.51
2023-09-30T02:52:32.983Z,59.48
2023-09-30T02:54:59.944Z,59.77
2023-09-30T02:57:28.878Z,60.10
2023-09-30T02:59:57.709Z,60.40
2023-09-30T03:02:25.240Z,61.64
2023-09-30T03:04:53.336Z,62.92
2023-09-30T03:07:21.146Z,62.82
2023-09-30T03:09:48.343Z,61.23
2023-09-30T03:12:15.624Z,60.33
2023-09-30T03:14:43.992Z,60.07
2023-09-30T03:17:13.789Z,60.10
2023-09-30T03:19:41.007Z,60.18
2023-09-30T03:22:12.632Z,60.89
2023-09-30T03:24:41.046Z,61.40
2023-09-30T03:27:09.028Z,61.20
2023-09-30T03:29:39.722Z,59.81
2023-09-30T03:32:06.902Z,59.24
2023-09-30T03:34:45.955Z,59.56
2023-09-30T03:37:13.105Z,60.22
2023-09-30T03:39:42.204Z,60.81
2023-09-30T03:42:12.603Z,61.60
2023-09-30T03:44:40.030Z,61.82
2023-09-30T03:47:08.858Z,61.08
2023-09-30T03:49:35.787Z,61.19
2023-09-30T03:52:02.919Z,61.47
2023-09-30T03:54:30.086Z,61.74
2023-09-30T03:56:57.119Z,61.46
2023-09-30T03:59:24.519Z,63.20
2023-09-30T04:01:51.436Z,62.95
2023-09-30T04:04:19.492Z,61.91
2023-09-30T04:06:48.649Z,60.29
2023-09-30T04:09:17.559Z,60.88
2023-09-30T04:11:44.620Z,61.73
2023-09-30T04:14:11.583Z,62.35
2023-09-30T04:16:38.979Z,62.84
2023-09-30T04:19:06.204Z,62.64
2023-09-30T04:21:35.719Z,60.96
2023-09-30T04:24:02.908Z,59.47
2023-09-30T04:26:31.315Z,59.73
2023-09-30T04:29:00.659Z,60.30
2023-09-30T04:31:29.930Z,61.17
2023-09-30T04:33:59.272Z,62.40
2023-09-30T04:36:26.509Z,62.56
2023-09-30T04:38:53.448Z,61.02
2023-09-30T04:41:20.576Z,60.32
2023-09-30T04:43:47.640Z,60.23
2023-09-30T04:46:15.013Z,60.50
2023-09-30T04:48:42.718Z,61.09
2023-09-30T04:51:10.290Z,61.43
2023-09-30T04:53:38.694Z,62.65
2023-09-30T04:56:05.714Z,62.91
2023-09-30T04:58:32.825Z,61.37
2023-09-30T05:00:59.972Z,60.25
2023-09-30T05:03:27.452Z,60.65
2023-09-30T05:05:56.961Z,60.73
2023-09-30T05:08:25.617Z,61.09
2023-09-30T05:10:56.742Z,61.74
2023-09-30T05:13:26.855Z,62.61
2023-09-30T05:15:53.952Z,61.37
2023-09-30T05:18:21.083Z,61.03
2023-09-30T05:20:48.344Z,60.97
2023-09-30T05:23:16.136Z,60.51
2023-09-30T05:25:44.173Z,60.86
2023-09-30T05:28:12.919Z,61.78
2023-09-30T05:30:41.977Z,61.87
2023-09-30T05:33:11.493Z,60.12
2023-09-30T05:35:39.855Z,59.23
2023-09-30T05:38:08.543Z,59.24
2023-09-30T05:40:35.559Z,59.38
2023-09-30T05:43:02.703Z,59.43
2023-09-30T05:45:32.424Z,59.61
2023-09-30T05:48:03.912Z,59.44
2023-09-30T05:50:31.136Z,57.86
2023-09-30T05:52:58.434Z,56.71
2023-09-30T05:55:27.211Z,56.58
2023-09-30T05:57:55.498Z,56.11
2023-09-30T06:00:32.608Z,55.91
2023-09-30T06:03:00.364Z,56.16
2023-09-30T06:05:28.540Z,56.37
2023-09-30T06:07:55.758Z,56.67
2023-09-30T06:10:23.529Z,56.19
2023-09-30T06:12:56.526Z,53.94
2023-09-30T06:15:27.472Z,52.45
2023-09-30T06:17:55.180Z,51.98
2023-09-30T06:20:23.719Z,51.47
2023-09-30T06:22:51.003Z,51.96
2023-09-30T06:25:18.999Z,51.80
2023-09-30T06:27:46.709Z,51.97
2023-09-30T06:30:15.245Z,51.68
2023-09-30T06:32:42.899Z,51.82
2023-09-30T06:35:11.615Z,50.49
2023-09-30T06:37:39.138Z,49.43
2023-09-30T06:40:09.189Z,49.26
2023-09-30T06:42:37.065Z,49.70
2023-09-30T06:45:08.700Z,49.10
2023-09-30T06:47:37.640Z,48.82
2023-09-30T06:50:09.432Z,48.86
2023-09-30T06:52:39.111Z,47.93
2023-09-30T06:55:07.458Z,48.13
2023-09-30T06:57:38.558Z,46.93
2023-09-30T07:00:10.554Z,46.23
2023-09-30T07:02:37.767Z,47.16
2023-09-30T07:05:15.192Z,47.51
2023-09-30T07:07:46.611Z,47.08
2023-09-30T07:10:14.391Z,46.84
2023-09-30T07:12:41.526Z,46.70
2023-09-30T07:15:09.604Z,47.55
2023-09-30T07:17:37.064Z,47.68
2023-09-30T07:20:06.179Z,47.52
2023-09-30T07:22:50.262Z,47.43
2023-09-30T07:25:20.019Z,47.85
2023-09-30T07:27:47.603Z,48.06
2023-09-30T07:30:16.936Z,48.56
2023-09-30T07:32:44.555Z,49.16
2023-09-30T07:35:18.178Z,50.17
2023-09-30T07:37:45.439Z,49.32
2023-09-30T07:40:13.108Z,49.72
2023-09-30T07:42:40.227Z,50.00
2023-09-30T07:45:08.594Z,49.64
2023-09-30T07:47:35.782Z,50.06
2023-09-30T07:50:11.307Z,48.73
2023-09-30T07:52:40.758Z,49.68
2023-09-30T07:55:09.640Z,48.71
2023-09-30T07:57:38.584Z,47.74
2023-09-30T08:00:10.597Z,48.67
2023-09-30T08:02:38.306Z,47.53
2023-09-30T08:05:07.278Z,48.81
2023-09-30T08:07:35.126Z,48.87
2023-09-30T08:10:06.126Z,48.83
2023-09-30T08:12:34.249Z,46.21
2023-09-30T08:15:01.471Z,47.39
2023-09-30T08:17:28.576Z,48.54
2023-09-30T08:19:55.592Z,47.98
2023-09-30T08:22:26.592Z,47.81
2023-09-30T08:24:53.741Z,46.64
2023-09-30T08:27:21.215Z,47.16
2023-09-30T08:29:48.442Z,46.53
2023-09-30T08:32:15.938Z,45.97
2023-09-30T08:34:43.148Z,46.07
2023-09-30T08:37:10.886Z,45.98
2023-09-30T08:39:44.484Z,45.98
2023-09-30T08:42:15.425Z,45.38
2023-09-30T08:44:42.461Z,44.37
2023-09-30T08:47:10.930Z,43.95
2023-09-30T08:49:41.899Z,42.95
2023-09-30T08:52:11.036Z,43.28
2023-09-30T08:54:38.843Z,39.37
2023-09-30T08:57:05.809Z,40.44
2023-09-30T08:59:33.438Z,40.80
2023-09-30T09:02:01.392Z,39.43
2023-09-30T09:04:28.564Z,39.65
2023-09-30T09:06:56.823Z,37.98
2023-09-30T09:09:24.948Z,38.13
2023-09-30T09:11:52.943Z,37.33
2023-09-30T09:14:20.199Z,37.07
2023-09-30T09:16:54.981Z,36.16
2023-09-30T09:19:22.746Z,36.83
2023-09-30T09:21:57.121Z,36.30
2023-09-30T09:24:34.402Z,35.36
2023-09-30T09:27:11.919Z,35.67
2023-09-30T09:29:40.319Z,35.69
2023-09-30T09:32:11.550Z,35.08
2023-09-30T09:34:39.807Z,34.63
2023-09-30T09:37:20.744Z,34.45
2023-09-30T09:39:54.977Z,33.70
2023-09-30T09:42:29.153Z,33.52
2023-09-30T09:45:04.770Z,33.12
2023-09-30T09:47:32.910Z,33.08
2023-09-30T09:50:00.170Z,32.42
2023-09-30T09:52:27.673Z,31.71
2023-09-30T09:54:54.702Z,32.08
2023-09-30T09:57:21.766Z,31.67
2023-09-30T09:59:48.849Z,32.40
2023-09-30T10:02:16.532Z,32.17
2023-09-30T10:04:44.750Z,31.51
2023-09-30T10:07:15.349Z,32.54
2023-09-30T10:09:42.962Z,31.25
2023-09-30T10:12:10.190Z,30.25
2023-09-30T10:14:37.464Z,30.22
2023-09-30T10:17:05.077Z,31.04
2023-09-30T10:19:33.441Z,31.62
2023-09-30T10:22:20.302Z,31.39
2023-09-30T10:24:47.802Z,32.90
2023-09-30T10:27:30.829Z,31.37
2023-09-30T10:30:01.147Z,29.27
2023-09-30T10:32:57.268Z,28.86
2023-09-30T10:35:33.450Z,30.38
2023-09-30T10:38:31.824Z,30.53
2023-09-30T10:40:59.342Z,29.79
2023-09-30T10:43:40.151Z,29.82
2023-09-30T10:46:29.282Z,29.76
2023-09-30T10:48:58.776Z,29.46
2023-09-30T10:51:26.188Z,28.90
2023-09-30T10:53:56.536Z,28.58
2023-09-30T10:56:23.524Z,29.48
2023-09-30T10:58:51.707Z,29.25
2023-09-30T11:01:23.033Z,29.28
2023-09-30T11:03:52.698Z,27.32
2023-09-30T11:06:22.571Z,27.46
2023-09-30T11:09:03.872Z,27.75
2023-09-30T11:11:38.950Z,27.38
2023-09-30T11:14:18.083Z,25.21
2023-09-30T11:16:45.136Z,25.93
2023-09-30T11:19:16.489Z,25.39
2023-09-30T11:21:47.025Z,25.18
2023-09-30T11:24:15.407Z,26.71
2023-09-30T11:26:42.509Z,27.11
2023-09-30T11:29:14.539Z,26.25
2023-09-30T11:31:42.197Z,24.96
2023-09-30T11:34:09.359Z,25.15
2023-09-30T11:36:37.274Z,25.41
2023-09-30T11:39:06.205Z,24.46
2023-09-30T11:41:35.095Z,26.04
2023-09-30T11:44:17.461Z,27.14
2023-09-30T11:46:51.077Z,27.19
2023-09-30T11:49:41.777Z,26.33
2023-09-30T11:52:12.900Z,25.60
2023-09-30T11:54:47.810Z,25.50
2023-09-30T11:57:19.360Z,25.55
2023-09-30T11:59:47.249Z,26.70
2023-09-30T12:02:18.670Z,26.55
2023-09-30T12:04:48.680Z,26.86
2023-09-30T12:07:16.459Z,26.97
2023-09-30T12:09:44.004Z,27.65
2023-09-30T12:12:15.957Z,28.75
2023-09-30T12:14:43.196Z,27.49
2023-09-30T12:17:12.778Z,27.89
2023-09-30T12:19:40.273Z,27.35
2023-09-30T12:22:07.687Z,27.47
2023-09-30T12:24:35.105Z,28.39
2023-09-30T12:27:02.685Z,28.15
2023-09-30T12:29:30.872Z,28.29
2023-09-30T12:31:58.133Z,28.16
2023-09-30T12:34:27.276Z,27.84
2023-09-30T12:36:55.271Z,28.12
2023-09-30T12:39:26.120Z,28.42
2023-09-30T12:41:54.395Z,28.01
2023-09-30T12:44:21.642Z,27.89
2023-09-30T12:46:48.936Z,28.07
2023-09-30T12:49:16.318Z,28.17
2023-09-30T12:51:43.835Z,29.02
2023-09-30T12:54:12.187Z,30.21
2023-09-30T12:56:39.268Z,29.87
2023-09-30T12:59:06.219Z,28.73
2023-09-30T13:01:36.152Z,28.07
2023-09-30T13:04:04.297Z,28.52
2023-09-30T13:06:33.964Z,28.87
2023-09-30T13:09:01.419Z,28.57
2023-09-30T13:11:28.897Z,29.00
2023-09-30T13:13:56.434Z,29.22
2023-09-30T13:16:23.925Z,29.42
2023-09-30T13:18:53.667Z,29.25
2023-09-30T13:21:21.722Z,29.73
2023-09-30T13:23:48.746Z,30.63
2023-09-30T13:26:15.684Z,31.34
2023-09-30T13:28:42.708Z,31.69
2023-09-30T13:31:09.865Z,31.22
2023-09-30T13:33:36.945Z,31.38
2023-09-30T13:36:04.216Z,31.49
2023-09-30T13:38:31.500Z,31.53
2023-09-30T13:40:58.529Z,32.73
2023-09-30T13:43:25.599Z,31.87
2023-09-30T13:45:52.818Z,32.31
2023-09-30T13:48:19.845Z,32.37
2023-09-30T13:50:47.035Z,32.84
2023-09-30T13:53:14.039Z,32.86
2023-09-30T13:55:41.000Z,32.67
2023-09-30T13:58:08.176Z,32.47
2023-09-30T14:00:35.226Z,33.47
2023-09-30T14:03:02.433Z,33.07
2023-09-30T14:05:29.840Z,33.74
2023-09-30T14:07:56.830Z,33.74
2023-09-30T14:10:25.376Z,33.47
2023-09-30T14:12:52.602Z,33.84
2023-09-30T14:15:19.806Z,33.67
2023-09-30T14:17:46.878Z,33.84
2023-09-30T14:20:14.229Z,34.39
2023-09-30T14:22:41.258Z,34.29
2023-09-30T14:25:08.922Z,34.64
2023-09-30T14:27:36.122Z,35.20
2023-09-30T14:30:08.435Z,35.29
2023-09-30T14:32:36.278Z,35.11
2023-09-30T14:35:06.867Z,35.55
2023-09-30T14:37:33.941Z,35.78
2023-09-30T14:40:01.048Z,35.77
2023-09-30T14:42:28.946Z,35.60
2023-09-30T14:44:57.701Z,36.60
2023-09-30T14:47:24.792Z,36.21
2023-09-30T14:49:51.986Z,37.56
2023-09-30T14:52:19.035Z,37.14
2023-09-30T14:54:46.055Z,36.89
2023-09-30T14:57:15.052Z,37.85
2023-09-30T14:59:41.993Z,38.40
2023-09-30T15:02:12.181Z,39.08
2023-09-30T15:04:39.481Z,39.05
2023-09-30T15:07:07.176Z,40.09
2023-09-30T15:09:34.521Z,40.40
2023-09-30T15:12:01.560Z,41.52
2023-09-30T15:14:28.789Z,41.96
2023-09-30T15:16:55.905Z,41.81
2023-09-30T15:19:23.152Z,42.15
2023-09-30T15:21:50.924Z,42.33
2023-09-30T15:24:17.991Z,42.57
2023-09-30T15:26:45.368Z,42.73
2023-09-30T15:29:12.509Z,43.75
2023-09-30T15:31:39.925Z,44.35
2023-09-30T15:34:07.280Z,45.36
2023-09-30T15:36:34.764Z,45.74
2023-09-30T15:39:02.653Z,45.39
2023-09-30T15:41:29.896Z,45.66
2023-09-30T15:44:00.866Z,46.42
2023-09-30T15:46:28.144Z,46.60
2023-09-30T15:48:55.201Z,47.19
2023-09-30T15:51:22.796Z,47.22
2023-09-30T15:53:49.936Z,47.44
2023-09-30T15:56:17.188Z,48.11
2023-09-30T15:58:44.162Z,48.12
2023-09-30T16:01:14.432Z,48.76
2023-09-30T16:03:44.256Z,49.02
2023-09-30T16:06:11.612Z,49.33
2023-09-30T16:08:38.678Z,49.60
2023-09-30T16:11:05.628Z,49.73
2023-09-30T16:13:33.310Z,50.39
2023-09-30T16:16:00.263Z,50.36
2023-09-30T16:18:29.557Z,50.24
2023-09-30T16:20:56.580Z,50.40
2023-09-30T16:23:23.848Z,50.58
2023-09-30T16:25:50.855Z,50.45
2023-09-30T16:28:18.136Z,50.72
2023-09-30T16:30:45.632Z,50.58
2023-09-30T16:33:12.986Z,50.50
2023-09-30T16:35:40.657Z,51.39
2023-09-30T16:38:07.644Z,51.39
2023-09-30T16:40:34.723Z,51.26
2023-09-30T16:43:01.754Z,51.31
2023-09-30T16:45:28.986Z,51.91
2023-09-30T16:47:56.024Z,51.85
2023-09-30T16:50:23.452Z,51.81
2023-09-30T16:52:50.653Z,52.11
2023-09-30T16:55:17.727Z,51.90
2023-09-30T16:57:44.838Z,52.39
2023-09-30T17:00:12.530Z,52.64
2023-09-30T17:02:39.734Z,53.05
2023-09-30T17:05:07.832Z,53.30
2023-09-30T17:07:35.845Z,54.21
2023-09-30T17:10:03.103Z,53.72
2023-09-30T17:12:30.376Z,51.89
2023-09-30T17:14:57.334Z,51.13
2023-09-30T17:17:24.479Z,51.34
2023-09-30T17:19:51.487Z,51.86
2023-09-30T17:22:19.021Z,52.24
2023-09-30T17:24:46.573Z,52.21
2023-09-30T17:27:13.700Z,52.39
2023-09-30T17:29:40.858Z,53.66
2023-09-30T17:32:08.315Z,53.20
2023-09-30T17:34:41.045Z,53.87
2023-09-30T17:37:09.040Z,53.75
2023-09-30T17:39:36.146Z,55.14
2023-09-30T17:42:03.214Z,54.15
2023-09-30T17:44:30.358Z,52.90
2023-09-30T17:46:57.335Z,51.76
2023-09-30T17:49:24.305Z,51.59
2023-09-30T17:51:51.358Z,51.91
2023-09-30T17:54:18.381Z,52.17
2023-09-30T17:56:45.512Z,53.32
2023-09-30T17:59:13.586Z,52.97
2023-09-30T18:01:40.714Z,53.69
2023-09-30T18:04:08.418Z,53.94
2023-09-30T18:06:35.846Z,54.50
2023-09-30T18:09:04.042Z,55.09
2023-09-30T18:11:31.208Z,55.22
2023-09-30T18:13:58.478Z,55.31
2023-09-30T18:16:26.447Z,53.53
2023-09-30T18:18:53.538Z,52.56
2023-09-30T18:21:20.741Z,52.66
2023-09-30T18:23:47.962Z,52.82
2023-09-30T18:26:16.298Z,53.61
2023-09-30T18:28:44.498Z,54.10
2023-09-30T18:31:12.408Z,54.80
2023-09-30T18:33:39.532Z,55.10
2023-09-30T18:36:08.637Z,55.30
2023-09-30T18:38:35.611Z,55.58
2023-09-30T18:41:11.031Z,55.65
2023-09-30T18:43:38.443Z,56.25
2023-09-30T18:46:10.404Z,56.41
2023-09-30T18:48:37.850Z,54.35
2023-09-30T18:51:04.840Z,53.86
2023-09-30T18:53:31.834Z,54.07
2023-09-30T18:55:59.153Z,53.93
2023-09-30T18:58:26.088Z,54.51
2023-09-30T19:00:53.214Z,55.17
2023-09-30T19:03:20.283Z,55.02
2023-09-30T19:05:55.096Z,55.86
2023-09-30T19:08:24.012Z,56.46
2023-09-30T19:11:57.975Z,55.82
2023-09-30T19:14:25.071Z,54.68
2023-09-30T19:16:52.223Z,54.48
2023-09-30T19:19:19.381Z,54.54
2023-09-30T19:21:46.529Z,54.66
2023-09-30T19:24:13.714Z,54.61
2023-09-30T19:26:40.946Z,55.81
2023-09-30T19:29:08.181Z,55.30
2023-09-30T19:31:35.799Z,56.32
2023-09-30T19:34:03.156Z,57.10
2023-09-30T19:36:30.371Z,56.71
2023-09-30T19:38:57.406Z,55.61
2023-09-30T19:41:24.342Z,54.92
2023-09-30T19:43:52.082Z,54.49
2023-09-30T19:46:19.236Z,54.75
2023-09-30T19:48:46.690Z,55.72
2023-09-30T19:51:16.522Z,55.69
2023-09-30T19:53:43.643Z,55.92
2023-09-30T19:56:10.620Z,56.21
2023-09-30T19:58:38.328Z,57.58
2023-09-30T20:01:09.439Z,57.62
2023-09-30T20:03:39.960Z,56.02
2023-09-30T20:06:19.662Z,54.96
2023-09-30T20:08:51.250Z,54.97
2023-09-30T20:11:24.132Z,55.21
2023-09-30T20:13:52.456Z,55.70
2023-09-30T20:16:19.792Z,56.18
2023-09-30T20:18:47.273Z,56.90
2023-09-30T20:21:14.375Z,56.50
2023-09-30T20:23:41.613Z,58.04
2023-09-30T20:26:13.989Z,57.85
2023-09-30T20:28:41.096Z,55.36
2023-09-30T20:31:08.251Z,55.38
2023-09-30T20:33:35.720Z,55.58
2023-09-30T20:36:07.013Z,55.76
2023-09-30T20:38:37.066Z,55.12
2023-09-30T20:41:08.451Z,57.11
2023-09-30T20:43:35.487Z,57.99
2023-09-30T20:46:04.035Z,57.45
2023-09-30T20:48:31.491Z,56.41
2023-09-30T20:50:58.665Z,56.65
2023-09-30T20:53:28.950Z,55.89
2023-09-30T20:55:55.893Z,55.04
2023-09-30T20:58:22.866Z,55.86
2023-09-30T21:00:50.057Z,55.97
2023-09-30T21:03:17.905Z,57.08
2023-09-30T21:05:45.260Z,56.27
2023-09-30T21:08:16.069Z,55.01
2023-09-30T21:10:43.875Z,55.41
2023-09-30T21:13:10.944Z,55.72
2023-09-30T21:15:38.003Z,56.49
2023-09-30T21:18:05.624Z,56.18
2023-09-30T21:20:33.466Z,56.64
2023-09-30T21:23:00.849Z,58.31
2023-09-30T21:25:27.778Z,58.31
2023-09-30T21:27:55.409Z,56.95
2023-09-30T21:30:22.386Z,55.98
2023-09-30T21:32:49.556Z,56.76
2023-09-30T21:35:17.418Z,57.38
2023-09-30T21:37:44.785Z,57.60
2023-09-30T21:40:13.288Z,58.00
2023-09-30T21:42:40.557Z,59.01
2023-09-30T21:45:08.464Z,58.63
2023-09-30T21:47:35.438Z,56.69
2023-09-30T21:50:02.594Z,56.68
2023-09-30T21:52:29.966Z,56.82
2023-09-30T21:54:56.982Z,56.36
2023-09-30T21:57:23.915Z,57.18
2023-09-30T21:59:50.838Z,57.98
2023-09-30T22:02:17.808Z,58.49
2023-09-30T22:04:45.563Z,58.44
2023-09-30T22:07:12.571Z,56.68
2023-09-30T22:09:40.334Z,56.57
2023-09-30T22:12:07.866Z,56.51
2023-09-30T22:14:34.861Z,57.24
2023-09-30T22:17:02.952Z,58.11
2023-09-30T22:19:30.653Z,58.96
2023-09-30T22:21:57.684Z,59.08
2023-09-30T22:24:24.743Z,57.90
2023-09-30T22:26:51.743Z,57.82
2023-09-30T22:29:18.834Z,57.97
2023-09-30T22:31:46.483Z,58.51
2023-09-30T22:34:13.600Z,59.27
2023-09-30T22:36:46.345Z,60.41
2023-09-30T22:39:13.942Z,59.88
2023-09-30T22:41:40.864Z,58.61
2023-09-30T22:44:07.954Z,57.98
2023-09-30T22:46:34.978Z,57.85
2023-09-30T22:49:02.167Z,58.20
2023-09-30T22:51:29.397Z,59.44
2023-09-30T22:53:56.362Z,60.35
2023-09-30T22:56:24.463Z,59.52
2023-09-30T22:58:52.967Z,57.98
2023-09-30T23:01:24.155Z,58.28
2023-09-30T23:03:53.823Z,58.84
2023-09-30T23:06:21.502Z,58.75
2023-09-30T23:08:50.620Z,59.27
2023-09-30T23:11:18.673Z,60.73
2023-09-30T23:13:46.875Z,59.83
2023-09-30T23:16:14.491Z,58.33
2023-09-30T23:18:41.758Z,58.28
2023-09-30T23:21:09.527Z,58.57
2023-09-30T23:23:36.962Z,58.85
2023-09-30T23:26:05.270Z,59.64
2023-09-30T23:28:35.356Z,60.48
2023-09-30T23:31:04.171Z,59.93
2023-09-30T23:33:31.974Z,58.80
2023-09-30T23:36:03.752Z,58.30
2023-09-30T23:38:31.954Z,58.28
2023-09-30T23:40:59.988Z,59.16
2023-09-30T23:43:27.510Z,59.80
2023-09-30T23:45:54.789Z,60.64
2023-09-30T23:48:25.193Z,59.90
2023-09-30T23:50:54.518Z,58.86
2023-09-30T23:53:23.826Z,57.91
2023-09-30T23:55:50.984Z,58.62
2023-09-30T23:58:18.115Z,59.06
